Owasso, OK (74055)

4:14 AM CDT on September 05, 2015 (GMT -0500)
Mid-Town | | Change Station
CLOSE
Current Station
Personal Weather Station
Location: Owasso, OK
Elevation: 630 ft
Nearby Weather Stations

Elev 630 ft 36.27 °N, 95.84 °W | Updated 7 seconds ago

Clear
Clear
76.5 °F
Feels Like 78 °F
N
0.0
Wind Variable Wind from SE
Gusts 0.0 mph

Today
High -- | Low -- °F
--% Chance of Precip.
Yesterday
High -- | Low -- °F
Precip. -- in
6:57 AM 7:45 PM
Waning Gibbous, 50% visible
Pressure 29.93 in
Visibility 10.0 miles
Clouds Clear
Heat Index 78 °F
Dew Point 71 °F
Humidity 84%
Rainfall 0.00 in
Snow Depth Not available.
UV 0 out of 12
Pollen 10.20 out of 12
Air Quality Not available.
Flu Activity Not available.
METAR KTUL 050853Z 17007KT 10SM CLR 26/22 A2996 RMK AO2 SLP135 T02610222 51005
Pressure 29.93 in
Visibility 10.0 miles
Clouds Clear
Heat Index 78 °F
Dew Point 71 °F
Humidity 84%
Rainfall 0.00 in
Snow Depth Not available.
UV 0 out of 12
Pollen 10.20 out of 12
Air Quality Not available.
Flu Activity Not available.
METAR KTUL 050853Z 17007KT 10SM CLR 26/22 A2996 RMK AO2 SLP135 T02610222 51005

10-Day Weather Forecast

×

Almanac

Astronomy

Sep. 05, 2015 Rise Set
Actual Time
Civil Twilight
Nautical Twilight
Astronomical Twilight
Moon
Length of Visible Light
Length of Day
Tomorrow will be .
, % of the Moon is Illuminated

Today's Extremes

State Highs State Lows

Community

WunderPhotos

Upload Photos

1,852,440 photos uploaded!

WunderBlogs® & News

Nearby

Air Quality

  Air Quality AQ Index Pollutant
Not available.

Snow Depth

Station Depth Elevation

Earthquake Activity

City Distance Mag. Time & Date
Minimum magnitude displayed is 2.5.

Coastal Water Temperatures

Place Temperature

Stations

Nearby Weather Stations

Station Location Temp. Windchill Dew Point Humidity Wind Precip. Elev Updated Type